Time;durP1;ratioP1;P1;durP2;ratioP2;P2;SDS_P1;SDS_P2;PMS_P1;PMS_P2;Temp;Humidity;BMP_temperature;BMP_pressure;BME280_temperature;BME280_humidity;BME280_pressure;Samples;Min_cycle;Max_cycle;Signal;HPM_P1;HPM_P2
2020/12/22 00:00:43;;;;;;;4.80;4.30;;;12.70;91.30;;;;;;5015251;28;20034;-96
2020/12/22 00:03:15;;;;;;;4.00;3.60;;;12.80;91.30;;;;;;5316771;23;20077;-96
2020/12/22 00:05:40;;;;;;;5.63;4.45;;;12.80;91.30;;;;;;4979590;28;20461;-95
2020/12/22 00:08:12;;;;;;;3.95;3.55;;;12.80;91.30;;;;;;4987905;28;20038;-95
2020/12/22 00:10:38;;;;;;;5.10;4.60;;;12.90;91.40;;;;;;4976276;28;20095;-95
2020/12/22 00:13:03;;;;;;;5.65;5.05;;;12.90;91.30;;;;;;4977364;28;20143;-93
2020/12/22 00:15:29;;;;;;;5.82;5.22;;;12.90;91.40;;;;;;4977078;28;20035;-94
2020/12/22 00:17:55;;;;;;;5.53;4.65;;;12.90;91.40;;;;;;4977805;28;20034;-94
2020/12/22 00:20:20;;;;;;;6.10;5.50;;;13.00;91.40;;;;;;4976329;28;20051;-93
2020/12/22 00:22:49;;;;;;;5.70;5.10;;;13.00;91.40;;;;;;4977239;28;20037;-93
2020/12/22 00:25:15;;;;;;;4.97;4.47;;;13.00;91.50;;;;;;4960326;28;20023;-94
2020/12/22 00:27:40;;;;;;;5.40;4.90;;;13.10;91.50;;;;;;4981211;28;20015;-94
2020/12/22 00:30:07;;;;;;;6.60;5.90;;;13.10;91.40;;;;;;4963496;28;20027;-94
2020/12/22 00:32:33;;;;;;;5.25;4.75;;;13.10;91.40;;;;;;4977940;28;20504;-95
2020/12/22 00:34:59;;;;;;;4.45;3.90;;;13.20;91.50;;;;;;4974654;28;20035;-93
2020/12/22 00:37:24;;;;;;;5.53;4.95;;;13.20;91.50;;;;;;4973012;28;20030;-91
2020/12/22 00:39:50;;;;;;;5.25;4.75;;;13.20;91.40;;;;;;4981984;28;20053;-93
2020/12/22 00:42:15;;;;;;;4.63;4.15;;;13.20;91.40;;;;;;4985116;28;20481;-93
2020/12/22 00:44:41;;;;;;;5.60;5.10;;;13.30;91.40;;;;;;4981546;28;20468;-92
2020/12/22 00:47:08;;;;;;;4.78;4.28;;;13.30;91.40;;;;;;4977686;28;20382;-93
2020/12/22 00:49:34;;;;;;;4.50;4.10;;;13.30;91.50;;;;;;4963138;28;20093;-91
2020/12/22 00:51:59;;;;;;;5.30;4.80;;;13.40;91.50;;;;;;4977147;28;20015;-93
2020/12/22 00:54:26;;;;;;;4.22;3.58;;;13.40;91.40;;;;;;4984432;28;20062;-92
2020/12/22 00:56:52;;;;;;;4.00;3.60;;;13.40;91.40;;;;;;4985801;28;20101;-93
2020/12/22 00:59:18;;;;;;;5.25;4.72;;;13.40;91.40;;;;;;4991181;28;20042;-93
2020/12/22 01:01:45;;;;;;;4.95;4.45;;;13.40;91.40;;;;;;4979316;28;20030;-95
2020/12/22 01:04:11;;;;;;;4.20;3.45;;;13.50;91.40;;;;;;4997489;28;20081;-94
2020/12/22 01:06:39;;;;;;;4.32;3.92;;;13.50;91.30;;;;;;4994956;28;20026;-94
2020/12/22 01:09:05;;;;;;;4.72;3.70;;;13.50;91.40;;;;;;4985682;28;20508;-94
2020/12/22 01:11:35;;;;;;;3.55;3.25;;;13.50;91.30;;;;;;4990002;28;20221;-94
2020/12/22 01:14:01;;;;;;;4.15;3.75;;;13.50;91.30;;;;;;4987637;28;20106;-94
2020/12/22 01:16:27;;;;;;;3.75;3.45;;;13.60;91.30;;;;;;4965223;28;20039;-94
2020/12/22 01:18:52;;;;;;;3.40;3.10;;;13.60;91.30;;;;;;4982266;28;20030;-94
2020/12/22 01:21:21;;;;;;;3.40;3.10;;;13.60;91.30;;;;;;4976485;28;20422;-94
2020/12/22 01:23:48;;;;;;;2.72;2.53;;;13.60;91.30;;;;;;4964465;28;20031;-94
2020/12/22 01:26:22;;;;;;;4.88;4.40;;;13.60;91.30;;;;;;4976490;28;20023;-93
2020/12/22 01:28:48;;;;;;;4.00;3.60;;;13.70;91.30;;;;;;4986078;28;20115;-94
2020/12/22 01:31:24;;;;;;;3.60;3.22;;;13.70;91.30;;;;;;4979947;28;20056;-94
2020/12/22 01:33:51;;;;;;;3.42;3.13;;;13.70;91.30;;;;;;4951862;28;20047;-95
2020/12/22 01:36:17;;;;;;;2.97;2.75;;;13.70;91.40;;;;;;4981581;28;20023;-95
2020/12/22 01:38:43;;;;;;;3.08;2.85;;;13.70;91.30;;;;;;4973171;28;20019;-95
2020/12/22 01:41:10;;;;;;;2.78;2.53;;;13.70;91.30;;;;;;4979329;28;20027;-95
2020/12/22 01:43:35;;;;;;;2.58;2.38;;;13.70;91.30;;;;;;4981943;28;20023;-95
2020/12/22 01:46:01;;;;;;;2.72;2.53;;;13.70;91.30;;;;;;4972368;28;20660;-96
2020/12/22 01:48:28;;;;;;;2.20;2.08;;;13.80;91.40;;;;;;4953604;28;20030;-96
2020/12/22 01:50:57;;;;;;;2.63;2.42;;;13.80;91.40;;;;;;4976681;28;20119;-96
2020/12/22 01:53:23;;;;;;;2.50;2.30;;;13.80;91.40;;;;;;4976447;28;20086;-95
2020/12/22 01:55:49;;;;;;;2.33;2.13;;;13.80;91.40;;;;;;4976295;28;20497;-95
2020/12/22 01:58:15;;;;;;;2.05;1.80;;;13.80;91.40;;;;;;4976320;28;20031;-94
2020/12/22 02:00:41;;;;;;;2.20;2.00;;;13.80;91.40;;;;;;4975438;28;20030;-94
2020/12/22 02:03:07;;;;;;;2.33;2.13;;;13.80;91.40;;;;;;4975460;28;20027;-95
2020/12/22 02:05:35;;;;;;;1.98;1.88;;;13.80;91.40;;;;;;4975636;28;20030;-95
2020/12/22 02:08:01;;;;;;;2.25;2.05;;;13.80;91.40;;;;;;4973314;28;20027;-94
2020/12/22 02:10:27;;;;;;;2.03;1.92;;;13.80;91.40;;;;;;4974490;28;20097;-93
2020/12/22 02:12:52;;;;;;;2.00;1.90;;;13.80;91.40;;;;;;4957732;28;20341;-93
2020/12/22 02:15:18;;;;;;;2.00;1.80;;;13.90;91.40;;;;;;4974763;28;20516;-92
2020/12/22 02:17:45;;;;;;;1.80;1.70;;;13.90;91.40;;;;;;4974165;28;20091;-94
2020/12/22 02:20:11;;;;;;;1.98;1.88;;;13.90;91.40;;;;;;4957544;28;20032;-93
2020/12/22 02:22:37;;;;;;;1.83;1.73;;;13.90;91.40;;;;;;4957457;28;20077;-93
2020/12/22 02:25:05;;;;;;;1.90;1.80;;;13.90;91.40;;;;;;4975683;28;20034;-95
2020/12/22 02:27:36;;;;;;;1.60;1.50;;;13.90;91.40;;;;;;4975228;28;20054;-94
2020/12/22 02:30:04;;;;;;;1.50;1.40;;;13.90;91.40;;;;;;4956605;28;20046;-94
2020/12/22 02:32:30;;;;;;;1.60;1.50;;;13.90;91.40;;;;;;4966355;28;20125;-93
2020/12/22 02:34:55;;;;;;;1.70;1.60;;;13.90;91.40;;;;;;4974456;28;20130;-93
2020/12/22 02:37:21;;;;;;;1.70;1.60;;;13.90;91.40;;;;;;4961990;28;20053;-93
2020/12/22 02:39:48;;;;;;;1.67;1.58;;;13.90;91.40;;;;;;4976143;28;20038;-92
2020/12/22 02:42:15;;;;;;;2.10;2.00;;;13.90;91.40;;;;;;4975125;28;20085;-93
2020/12/22 02:44:40;;;;;;;1.80;1.70;;;13.90;91.40;;;;;;4976084;28;20019;-94
2020/12/22 02:47:14;;;;;;;1.90;1.80;;;14.00;91.40;;;;;;4975979;28;20061;-96
2020/12/22 02:49:41;;;;;;;1.63;1.52;;;14.00;91.40;;;;;;4960654;28;20610;-93
2020/12/22 02:52:07;;;;;;;1.70;1.60;;;14.00;91.40;;;;;;4983586;28;20117;-93
2020/12/22 02:54:33;;;;;;;2.00;1.90;;;14.00;91.40;;;;;;4979559;28;20035;-93
2020/12/22 02:56:59;;;;;;;2.03;1.83;;;14.00;91.40;;;;;;4985264;28;20014;-94
2020/12/22 02:59:25;;;;;;;2.30;2.13;;;14.00;91.40;;;;;;4998307;28;20015;-94
2020/12/22 03:01:50;;;;;;;2.22;2.03;;;14.00;91.30;;;;;;4997488;28;20015;-96
2020/12/22 03:04:16;;;;;;;2.10;2.00;;;14.00;91.40;;;;;;4999117;28;20022;-96
2020/12/22 03:06:42;;;;;;;1.90;1.80;;;14.00;91.40;;;;;;4994089;28;20089;-95
2020/12/22 03:09:08;;;;;;;2.10;1.90;;;14.00;91.40;;;;;;4981080;28;20093;-95
2020/12/22 03:11:34;;;;;;;2.20;2.10;;;14.00;91.40;;;;;;4979926;28;20053;-94
2020/12/22 03:14:00;;;;;;;1.73;1.63;;;14.00;91.40;;;;;;4992823;28;20027;-95
2020/12/22 03:16:25;;;;;;;2.22;2.03;;;14.00;91.40;;;;;;4996011;28;20018;-92
2020/12/22 03:18:51;;;;;;;1.92;1.83;;;14.00;91.30;;;;;;4996538;28;20066;-94
2020/12/22 03:21:16;;;;;;;2.30;2.10;;;14.00;91.30;;;;;;4988535;28;20022;-95
2020/12/22 03:23:43;;;;;;;1.98;1.88;;;14.00;91.40;;;;;;4990607;28;20068;-96
2020/12/22 03:26:09;;;;;;;1.50;1.40;;;14.00;91.30;;;;;;4976096;28;20126;-94
2020/12/22 03:28:34;;;;;;;2.30;2.10;;;14.00;91.30;;;;;;4976594;28;20589;-95
2020/12/22 03:31:01;;;;;;;2.38;1.80;;;14.00;91.30;;;;;;4983665;28;20038;-95
2020/12/22 03:33:27;;;;;;;1.80;1.70;;;14.00;91.30;;;;;;4986249;28;20544;-96
2020/12/22 03:35:52;;;;;;;2.42;1.70;;;14.00;91.30;;;;;;4992734;28;20025;-95
2020/12/22 03:38:18;;;;;;;1.67;1.58;;;14.00;91.20;;;;;;4995820;28;20090;-96
2020/12/22 03:40:44;;;;;;;1.90;1.80;;;14.00;91.20;;;;;;4986663;28;20045;-95
2020/12/22 03:43:09;;;;;;;1.55;1.33;;;14.00;91.10;;;;;;4959778;28;20112;-94
2020/12/22 03:45:38;;;;;;;1.30;1.05;;;14.00;91.10;;;;;;4985648;28;20027;-91
2020/12/22 03:48:04;;;;;;;0.90;0.90;;;14.00;91.10;;;;;;4976908;28;20027;-91
2020/12/22 03:50:29;;;;;;;1.00;1.00;;;14.00;91.10;;;;;;4956183;28;20037;-93
2020/12/22 03:52:58;;;;;;;1.15;1.08;;;14.00;91.00;;;;;;4966362;28;20059;-93
2020/12/22 03:55:24;;;;;;;1.30;1.20;;;14.00;91.00;;;;;;4968650;28;20118;-92
2020/12/22 03:57:49;;;;;;;1.02;0.90;;;14.00;91.00;;;;;;4972888;28;20068;-92
2020/12/22 04:00:15;;;;;;;1.30;1.20;;;13.90;91.00;;;;;;4972582;28;20211;-93
2020/12/22 04:02:41;;;;;;;1.20;1.10;;;13.90;91.00;;;;;;4955737;28;20275;-93
2020/12/22 04:05:07;;;;;;;1.10;1.00;;;13.90;91.00;;;;;;4975213;28;20030;-92
2020/12/22 04:07:32;;;;;;;1.10;0.95;;;13.80;91.00;;;;;;4948056;28;20280;-92
2020/12/22 04:09:58;;;;;;;1.55;1.45;;;13.90;91.10;;;;;;4972971;28;20499;-93
2020/12/22 04:12:23;;;;;;;0.90;0.90;;;13.90;91.10;;;;;;4973595;28;20058;-92
2020/12/22 04:14:49;;;;;;;1.50;1.40;;;13.90;91.10;;;;;;4973271;28;20555;-95
2020/12/22 04:17:15;;;;;;;1.08;0.90;;;13.90;91.00;;;;;;4974529;28;20484;-95
2020/12/22 04:19:40;;;;;;;1.25;1.08;;;13.90;91.00;;;;;;4961383;28;20051;-94
2020/12/22 04:22:06;;;;;;;2.40;1.40;;;13.90;91.00;;;;;;4979209;28;20085;-94
2020/12/22 04:24:32;;;;;;;1.33;1.20;;;13.90;91.00;;;;;;4966054;28;20113;-93
2020/12/22 04:26:57;;;;;;;1.40;1.30;;;13.90;91.00;;;;;;4991618;28;20093;-96
2020/12/22 04:29:23;;;;;;;1.02;1.00;;;13.90;90.90;;;;;;4993571;28;20082;-94
2020/12/22 04:31:48;;;;;;;0.80;0.80;;;13.80;90.90;;;;;;4988980;28;20035;-95
2020/12/22 04:34:14;;;;;;;1.45;0.70;;;13.80;91.00;;;;;;4982087;28;20054;-95
2020/12/22 04:36:39;;;;;;;1.30;0.85;;;13.80;91.00;;;;;;4979439;28;20031;-94
2020/12/22 04:39:05;;;;;;;0.98;0.85;;;13.80;91.00;;;;;;4942682;28;20117;-93
2020/12/22 04:41:31;;;;;;;1.38;1.00;;;13.80;91.20;;;;;;4976878;28;20031;-95
2020/12/22 04:43:56;;;;;;;1.00;0.82;;;13.80;90.90;;;;;;4977725;28;20039;-94
2020/12/22 04:46:23;;;;;;;0.90;0.90;;;13.80;90.90;;;;;;4977562;28;20105;-94
2020/12/22 04:48:57;;;;;;;2.05;1.08;;;13.80;90.90;;;;;;4977956;28;20027;-93
2020/12/22 04:51:24;;;;;;;1.45;1.00;;;13.80;90.90;;;;;;4964752;28;20030;-96
2020/12/22 04:53:50;;;;;;;1.90;1.10;;;13.80;90.90;;;;;;4970072;28;20031;-96
2020/12/22 04:56:20;;;;;;;1.80;1.70;;;13.80;90.90;;;;;;4973054;28;20381;-96
2020/12/22 04:58:46;;;;;;;1.10;1.00;;;13.80;90.90;;;;;;4978341;28;20081;-93
2020/12/22 05:01:15;;;;;;;2.05;1.50;;;13.80;90.80;;;;;;4959107;28;20062;-94
2020/12/22 05:03:40;;;;;;;1.30;1.20;;;13.80;91.10;;;;;;4969042;28;20038;-92
2020/12/22 05:06:06;;;;;;;1.75;1.17;;;13.80;90.80;;;;;;4986187;28;20027;-92
2020/12/22 05:08:31;;;;;;;2.63;1.80;;;13.80;90.80;;;;;;4975952;28;20075;-93
2020/12/22 05:10:57;;;;;;;1.40;1.30;;;13.80;90.80;;;;;;4975834;28;20614;-92
2020/12/22 05:13:22;;;;;;;1.35;1.25;;;13.80;90.80;;;;;;4978010;28;20025;-93
2020/12/22 05:15:50;;;;;;;1.60;1.50;;;13.80;90.80;;;;;;4971421;28;20132;-92
2020/12/22 05:18:18;;;;;;;1.38;1.27;;;13.80;90.70;;;;;;4974880;28;20038;-91
2020/12/22 05:20:45;;;;;;;1.10;1.00;;;13.80;90.70;;;;;;4975235;28;20022;-91
2020/12/22 05:23:20;;;;;;;1.45;1.10;;;13.80;90.70;;;;;;4957683;28;20030;-92
2020/12/22 05:25:47;;;;;;;1.23;0.90;;;13.80;90.70;;;;;;4979903;28;20491;-93
2020/12/22 05:28:14;;;;;;;0.80;0.80;;;13.80;90.60;;;;;;4950622;28;20065;-91
2020/12/22 05:30:41;;;;;;;1.42;1.10;;;13.80;90.60;;;;;;4975332;28;20019;-93
2020/12/22 05:33:06;;;;;;;0.98;0.82;;;13.80;90.60;;;;;;4957528;28;20396;-92
2020/12/22 05:35:46;;;;;;;1.08;1.00;;;13.80;90.50;;;;;;4957441;28;20082;-93
2020/12/22 05:38:13;;;;;;;1.60;1.20;;;13.80;90.50;;;;;;4983396;28;20034;-91
2020/12/22 05:40:41;;;;;;;3.20;1.30;;;13.90;90.50;;;;;;4974253;28;20033;-93
2020/12/22 05:43:07;;;;;;;3.03;1.50;;;13.80;90.50;;;;;;4974134;28;20023;-93
2020/12/22 05:45:34;;;;;;;1.92;1.50;;;13.80;90.40;;;;;;4974106;28;20023;-93
2020/12/22 05:48:00;;;;;;;1.70;1.40;;;13.80;90.40;;;;;;4972811;28;20023;-92
2020/12/22 05:50:26;;;;;;;1.95;1.42;;;13.80;90.30;;;;;;4974923;28;20058;-92
2020/12/22 05:52:56;;;;;;;2.08;1.33;;;13.80;90.30;;;;;;4954981;28;20030;-93
2020/12/22 05:55:27;;;;;;;2.17;1.50;;;13.80;90.30;;;;;;4954336;29;20492;-92
2020/12/22 05:58:07;;;;;;;3.28;1.30;;;13.80;90.30;;;;;;4958458;28;20085;-92
2020/12/22 06:00:33;;;;;;;3.65;1.52;;;13.80;90.30;;;;;;4974313;28;20026;-92
2020/12/22 06:03:11;;;;;;;2.45;1.60;;;13.80;90.20;;;;;;4980298;28;20038;-92
2020/12/22 06:05:45;;;;;;;2.00;1.35;;;13.80;90.20;;;;;;4994725;28;20421;-93
2020/12/22 06:08:12;;;;;;;2.60;1.35;;;13.80;90.20;;;;;;4957514;28;20052;-93
2020/12/22 06:10:39;;;;;;;2.00;1.23;;;13.80;90.10;;;;;;4974516;28;20170;-93
2020/12/22 06:13:06;;;;;;;2.22;1.00;;;13.80;90.10;;;;;;4971827;28;20029;-93
2020/12/22 06:15:33;;;;;;;1.98;1.10;;;13.80;90.00;;;;;;4977289;28;20057;-94
2020/12/22 06:17:59;;;;;;;2.17;1.30;;;13.80;90.00;;;;;;4976881;28;20022;-96
2020/12/22 06:20:27;;;;;;;1.80;0.93;;;13.80;90.00;;;;;;4975521;28;20102;-96
2020/12/22 06:23:05;;;;;;;3.00;1.35;;;13.80;90.00;;;;;;4981028;28;20601;-96
2020/12/22 06:25:31;;;;;;;2.28;1.40;;;13.80;90.00;;;;;;4976261;28;20035;-94
2020/12/22 06:27:57;;;;;;;2.53;1.40;;;13.80;89.90;;;;;;4988945;28;20031;-94
2020/12/22 06:30:35;;;;;;;4.18;1.70;;;13.80;90.00;;;;;;4984268;28;20064;-94
2020/12/22 06:33:23;;;;;;;2.95;1.88;;;13.80;90.00;;;;;;4974844;28;20023;-95
2020/12/22 06:36:10;;;;;;;2.88;1.60;;;13.80;90.00;;;;;;4975248;28;20114;-95
2020/12/22 06:38:57;;;;;;;3.15;2.20;;;13.80;90.00;;;;;;4957129;28;20112;-95
2020/12/22 06:41:35;;;;;;;3.30;1.90;;;13.80;89.90;;;;;;4958123;28;20037;-94
2020/12/22 06:44:13;;;;;;;4.93;2.55;;;13.80;90.00;;;;;;4973974;28;20026;-94
2020/12/22 06:46:42;;;;;;;4.47;2.40;;;13.80;89.90;;;;;;4974140;28;20539;-93
2020/12/22 06:49:09;;;;;;;3.45;2.78;;;13.80;89.90;;;;;;4957422;28;20015;-93
2020/12/22 06:51:37;;;;;;;7.35;5.07;;;13.80;89.90;;;;;;4974008;28;20473;-92
2020/12/22 06:54:04;;;;;;;8.45;4.78;;;13.80;89.90;;;;;;4974216;28;20031;-92
2020/12/22 06:56:47;;;;;;;6.43;4.20;;;13.80;89.80;;;;;;5005523;28;20037;-96
2020/12/22 06:59:33;;;;;;;8.48;4.60;;;13.80;89.80;;;;;;4981484;28;20097;-92
2020/12/22 07:01:58;;;;;;;6.75;4.30;;;13.80;89.60;;;;;;4973874;28;20034;-92
2020/12/22 07:04:24;;;;;;;5.97;3.83;;;13.80;89.60;;;;;;4974362;28;20023;-93
2020/12/22 07:06:58;;;;;;;5.25;3.50;;;13.80;89.50;;;;;;4951488;28;20031;-92
2020/12/22 07:09:30;;;;;;;5.47;3.60;;;13.80;89.50;;;;;;4967050;28;20038;-91
2020/12/22 07:12:10;;;;;;;6.45;3.55;;;13.80;89.30;;;;;;4973857;28;20038;-93
2020/12/22 07:14:46;;;;;;;8.07;3.30;;;13.80;89.30;;;;;;4974502;28;20034;-93
2020/12/22 07:17:16;;;;;;;4.80;2.70;;;13.80;89.10;;;;;;4957406;28;20027;-93
2020/12/22 07:19:47;;;;;;;3.75;2.28;;;13.80;89.00;;;;;;4945796;29;20039;-93
2020/12/22 07:22:17;;;;;;;5.75;2.47;;;13.80;88.80;;;;;;4957838;28;20034;-92
2020/12/22 07:24:43;;;;;;;4.38;2.00;;;13.80;88.70;;;;;;4978120;28;20023;-93
2020/12/22 07:27:09;;;;;;;3.97;1.90;;;13.80;88.50;;;;;;4978818;28;20477;-92
2020/12/22 07:29:42;;;;;;;3.15;2.00;;;13.70;88.40;;;;;;4989432;28;20026;-91
2020/12/22 07:32:08;;;;;;;5.03;1.80;;;13.70;88.20;;;;;;4990261;28;20619;-93
2020/12/22 07:34:35;;;;;;;3.15;1.60;;;13.70;88.10;;;;;;4988204;28;20070;-93
2020/12/22 07:37:07;;;;;;;4.38;1.50;;;13.70;88.00;;;;;;4991552;28;20022;-93
2020/12/22 07:39:34;;;;;;;4.72;1.27;;;13.70;87.90;;;;;;4989208;28;20157;-92
2020/12/22 07:42:18;;;;;;;3.45;1.45;;;13.70;87.90;;;;;;4979464;28;20103;-91
2020/12/22 07:44:45;;;;;;;4.65;1.50;;;13.70;87.80;;;;;;4994737;28;20038;-93
2020/12/22 07:47:12;;;;;;;3.92;1.30;;;13.70;87.60;;;;;;4976529;28;20023;-94
2020/12/22 07:49:38;;;;;;;4.28;1.10;;;13.70;87.50;;;;;;4974107;28;20026;-91
2020/12/22 07:52:04;;;;;;;2.80;0.90;;;13.60;87.40;;;;;;4975581;28;20027;-92
2020/12/22 07:54:30;;;;;;;3.95;1.33;;;13.70;87.50;;;;;;4986059;28;20370;-91
2020/12/22 07:57:00;;;;;;;4.30;1.10;;;13.70;87.40;;;;;;4975325;28;20030;-91
2020/12/22 07:59:26;;;;;;;2.85;1.00;;;13.70;87.20;;;;;;4977845;28;20161;-92
2020/12/22 08:01:53;;;;;;;2.95;0.90;;;13.60;87.30;;;;;;4975038;28;20026;-89
2020/12/22 08:04:19;;;;;;;1.48;0.80;;;13.60;87.40;;;;;;4981379;28;20027;-91
2020/12/22 08:06:58;;;;;;;3.20;1.00;;;13.60;87.40;;;;;;4981605;28;20098;-93
2020/12/22 08:09:31;;;;;;;3.38;1.10;;;13.60;87.40;;;;;;4978942;28;20109;-90
2020/12/22 08:11:59;;;;;;;5.13;1.10;;;13.60;87.40;;;;;;4977262;28;20022;-90
2020/12/22 08:14:27;;;;;;;2.63;0.88;;;13.60;87.50;;;;;;4982518;28;20094;-93
2020/12/22 08:17:00;;;;;;;2.55;1.00;;;13.50;87.60;;;;;;4969391;28;20031;-92
2020/12/22 08:19:34;;;;;;;4.97;1.40;;;13.50;87.80;;;;;;4978087;28;20029;-92
2020/12/22 08:22:00;;;;;;;4.38;1.42;;;13.50;87.80;;;;;;4986378;28;20026;-91
2020/12/22 08:24:28;;;;;;;5.90;1.38;;;13.50;87.90;;;;;;4967789;28;20077;-91
2020/12/22 08:26:54;;;;;;;2.97;1.05;;;13.40;87.70;;;;;;4973339;28;20035;-93
2020/12/22 08:29:20;;;;;;;4.60;1.02;;;13.40;87.90;;;;;;4986176;28;20030;-92
2020/12/22 08:31:47;;;;;;;6.60;1.70;;;13.40;87.90;;;;;;4972311;28;20038;-93
2020/12/22 08:34:17;;;;;;;3.85;1.35;;;13.40;87.80;;;;;;4978968;28;20034;-95
2020/12/22 08:36:44;;;;;;;3.70;1.10;;;13.40;87.90;;;;;;4979682;28;20068;-92
2020/12/22 08:39:15;;;;;;;4.00;1.27;;;13.50;87.90;;;;;;4958308;28;20081;-93
2020/12/22 08:41:43;;;;;;;4.45;1.08;;;13.40;87.80;;;;;;4959011;28;20030;-92
2020/12/22 08:44:10;;;;;;;5.45;1.38;;;13.40;87.80;;;;;;4965481;28;20027;-93
2020/12/22 08:50:08;;;;;;;6.00;1.25;;;13.40;88.00;;;;;;4974952;28;20045;-94
2020/12/22 08:52:33;;;;;;;3.47;1.23;;;13.40;87.70;;;;;;4991677;28;20029;-93
2020/12/22 08:55:01;;;;;;;5.47;1.30;;;13.40;87.70;;;;;;4995958;28;20035;-93
2020/12/22 08:57:29;;;;;;;6.05;1.23;;;13.40;88.40;;;;;;4949045;28;20279;-92
2020/12/22 08:59:55;;;;;;;6.63;1.50;;;13.40;87.90;;;;;;4958866;28;20106;-88
2020/12/22 09:02:30;;;;;;;4.72;1.23;;;13.30;87.90;;;;;;4961267;28;20086;-90
2020/12/22 09:05:10;;;;;;;5.55;1.40;;;13.30;88.00;;;;;;4976599;28;20023;-90
2020/12/22 09:07:35;;;;;;;6.60;1.50;;;13.30;88.10;;;;;;4991723;28;20019;-90
2020/12/22 09:10:05;;;;;;;5.57;1.30;;;13.30;88.10;;;;;;4971433;28;21359;-93
2020/12/22 09:12:31;;;;;;;6.13;1.65;;;13.20;88.20;;;;;;4994143;28;20018;-94
2020/12/22 09:14:58;;;;;;;5.97;1.70;;;13.20;88.30;;;;;;4990422;28;20039;-92
2020/12/22 09:17:32;;;;;;;8.18;1.63;;;13.30;88.30;;;;;;4981718;28;20090;-93
2020/12/22 09:19:58;;;;;;;5.60;1.40;;;13.30;88.30;;;;;;4997576;28;20025;-90
2020/12/22 09:22:29;;;;;;;8.00;1.55;;;13.30;88.30;;;;;;4995317;28;20019;-89
2020/12/22 09:25:00;;;;;;;4.15;1.30;;;13.30;88.30;;;;;;4967033;28;20030;-90
2020/12/22 09:27:31;;;;;;;5.45;1.40;;;13.30;88.30;;;;;;4944440;28;20031;-88
2020/12/22 09:29:57;;;;;;;6.53;2.15;;;13.30;88.30;;;;;;4946679;28;20035;-88
2020/12/22 09:32:24;;;;;;;3.67;1.42;;;13.20;88.20;;;;;;4953506;28;20077;-89
2020/12/22 09:34:49;;;;;;;6.13;1.50;;;13.20;88.20;;;;;;4971602;28;20039;-88
2020/12/22 09:37:15;;;;;;;4.50;1.27;;;13.30;88.20;;;;;;4970065;28;20033;-89
2020/12/22 09:39:42;;;;;;;7.10;1.58;;;13.30;88.30;;;;;;4950474;28;20050;-95
2020/12/22 09:42:08;;;;;;;6.97;1.70;;;13.30;88.20;;;;;;4970208;28;20038;-87
2020/12/22 09:44:37;;;;;;;4.90;1.88;;;13.30;88.20;;;;;;4974035;28;20031;-90
2020/12/22 09:47:03;;;;;;;7.07;1.90;;;13.30;88.30;;;;;;4969263;28;20042;-91
2020/12/22 09:49:29;;;;;;;6.88;1.50;;;13.20;88.30;;;;;;4966428;28;20050;-88
2020/12/22 09:51:54;;;;;;;6.43;1.70;;;13.20;88.40;;;;;;4969686;28;20347;-90
2020/12/22 09:54:21;;;;;;;7.10;1.30;;;13.20;88.50;;;;;;4972737;28;20489;-89
2020/12/22 09:56:48;;;;;;;7.53;1.95;;;13.20;88.40;;;;;;4968102;28;20273;-89
2020/12/22 09:59:14;;;;;;;6.85;1.67;;;13.20;88.40;;;;;;4973247;28;20090;-91
2020/12/22 10:01:40;;;;;;;6.38;1.55;;;13.20;88.40;;;;;;4954681;28;20110;-89
2020/12/22 10:04:05;;;;;;;6.07;1.55;;;13.30;88.40;;;;;;4959786;28;20113;-91
2020/12/22 10:06:32;;;;;;;5.93;1.70;;;13.30;88.40;;;;;;4970054;28;20085;-90
2020/12/22 10:08:57;;;;;;;6.68;1.85;;;13.30;88.40;;;;;;4963508;28;20114;-89
2020/12/22 10:11:24;;;;;;;5.75;1.60;;;13.30;88.30;;;;;;4965419;28;20024;-89
2020/12/22 10:13:51;;;;;;;6.85;2.03;;;13.30;88.30;;;;;;4972371;28;20027;-92
2020/12/22 10:16:19;;;;;;;4.95;1.45;;;13.30;88.20;;;;;;4944272;28;20152;-92
2020/12/22 10:18:45;;;;;;;7.28;2.17;;;13.30;88.70;;;;;;4977742;28;20074;-95
2020/12/22 10:21:18;;;;;;;5.18;1.77;;;13.30;88.00;;;;;;4958747;28;20119;-92
2020/12/22 10:23:47;;;;;;;8.25;2.17;;;13.40;88.10;;;;;;4987555;23;20050;-92
2020/12/22 10:26:51;;;;;;;6.18;1.80;;;13.40;88.00;;;;;;4982796;28;20101;-91
2020/12/22 10:29:39;;;;;;;;;;;;;;;;;;;;;
2020/12/22 10:32:06;;;;;;;5.53;1.50;;;13.40;87.90;;;;;;4932225;29;20616;-93
2020/12/22 10:34:32;;;;;;;4.90;1.55;;;13.40;87.80;;;;;;4924940;29;20233;-93
2020/12/22 10:36:58;;;;;;;6.18;1.75;;;13.40;87.80;;;;;;4926553;29;20110;-95
2020/12/22 10:39:24;;;;;;;5.32;1.85;;;13.40;87.80;;;;;;4927966;29;20039;-91
2020/12/22 10:41:50;;;;;;;4.15;1.63;;;13.40;87.70;;;;;;4962513;28;20039;-89
2020/12/22 10:44:15;;;;;;;4.82;1.60;;;13.40;87.80;;;;;;4951818;28;20037;-90
2020/12/22 10:46:45;;;;;;;4.80;1.73;;;13.40;87.80;;;;;;4966354;28;20085;-88
2020/12/22 10:49:12;;;;;;;3.80;1.73;;;13.40;87.70;;;;;;4964779;28;20089;-90
2020/12/22 10:51:38;;;;;;;5.20;1.80;;;13.40;87.80;;;;;;4947758;28;20034;-89
2020/12/22 10:54:03;;;;;;;6.55;2.58;;;13.40;87.70;;;;;;4962967;28;20063;-89
2020/12/22 10:56:29;;;;;;;6.03;2.33;;;13.40;87.60;;;;;;4948236;28;20086;-92
2020/12/22 10:58:55;;;;;;;4.75;1.95;;;13.40;87.70;;;;;;4950334;28;20153;-91
2020/12/22 11:01:21;;;;;;;5.05;2.13;;;13.40;87.80;;;;;;4962055;28;20049;-92
2020/12/22 11:03:47;;;;;;;4.65;1.83;;;13.40;87.80;;;;;;4946959;28;20545;-92
2020/12/22 11:06:28;;;;;;;5.82;2.20;;;13.40;87.90;;;;;;4951043;28;21510;-93
2020/12/22 11:08:53;;;;;;;5.43;2.15;;;13.40;87.90;;;;;;4946507;28;20055;-90
2020/12/22 11:11:19;;;;;;;3.22;1.40;;;13.30;87.90;;;;;;4949847;28;20066;-89
2020/12/22 11:13:45;;;;;;;5.05;1.90;;;13.40;88.00;;;;;;4966385;28;20038;-90
2020/12/22 11:16:11;;;;;;;4.65;1.60;;;13.30;87.90;;;;;;4961450;28;20050;-91
2020/12/22 11:18:37;;;;;;;3.13;1.38;;;13.30;87.80;;;;;;4965028;28;20097;-90
2020/12/22 11:21:09;;;;;;;3.50;1.30;;;13.30;87.90;;;;;;4973713;28;20544;-91
2020/12/22 11:23:35;;;;;;;3.10;1.05;;;13.20;87.90;;;;;;4973031;28;20540;-91
2020/12/22 11:26:00;;;;;;;3.22;1.05;;;13.20;87.90;;;;;;4968971;28;20069;-87
2020/12/22 11:28:26;;;;;;;3.40;1.10;;;13.20;87.90;;;;;;4963787;28;20118;-92
2020/12/22 11:30:51;;;;;;;2.10;1.05;;;13.10;87.90;;;;;;4949002;28;20028;-91
2020/12/22 11:33:17;;;;;;;1.65;0.80;;;13.10;87.90;;;;;;4967213;28;20062;-90
2020/12/22 11:35:42;;;;;;;1.85;0.80;;;13.10;88.00;;;;;;4971956;28;20037;-89
2020/12/22 11:38:08;;;;;;;2.42;1.25;;;13.10;88.00;;;;;;4959714;28;20150;-91
2020/12/22 11:40:34;;;;;;;1.80;1.20;;;13.10;88.10;;;;;;4964959;28;20003;-90
2020/12/22 11:43:00;;;;;;;2.90;1.00;;;13.00;88.40;;;;;;4969160;28;20443;-87
2020/12/22 11:45:25;;;;;;;1.70;0.82;;;12.90;87.80;;;;;;4964067;28;20034;-88
2020/12/22 11:47:51;;;;;;;2.05;1.00;;;12.80;87.80;;;;;;4967752;28;20042;-89
2020/12/22 11:50:18;;;;;;;1.13;0.95;;;12.80;87.90;;;;;;4964622;28;20026;-91
2020/12/22 11:52:43;;;;;;;1.90;1.13;;;12.80;88.00;;;;;;4967250;28;20119;-90
2020/12/22 11:55:10;;;;;;;1.95;1.13;;;12.70;87.80;;;;;;4963110;28;20159;-91
2020/12/22 11:57:36;;;;;;;1.30;0.98;;;12.70;87.80;;;;;;4967860;28;20027;-85
2020/12/22 12:00:04;;;;;;;2.15;0.90;;;12.70;87.80;;;;;;4966732;28;20114;-86
2020/12/22 12:02:29;;;;;;;2.45;1.20;;;12.70;87.70;;;;;;4965416;28;20019;-85
2020/12/22 12:04:55;;;;;;;0.80;0.80;;;12.60;87.70;;;;;;4965277;28;20047;-86
2020/12/22 12:07:20;;;;;;;1.42;0.70;;;12.60;87.70;;;;;;4948362;28;20077;-86
2020/12/22 12:09:46;;;;;;;1.33;0.90;;;12.60;87.70;;;;;;4965260;28;20059;-86
2020/12/22 12:12:12;;;;;;;1.48;0.90;;;12.60;87.80;;;;;;4948395;28;20381;-88
2020/12/22 12:14:37;;;;;;;0.65;0.63;;;12.50;87.60;;;;;;4966548;28;20030;-86
2020/12/22 12:17:03;;;;;;;0.93;0.70;;;12.50;87.60;;;;;;4965438;28;20030;-88
2020/12/22 12:19:32;;;;;;;0.70;0.70;;;12.50;87.60;;;;;;4949001;28;20489;-87
2020/12/22 12:21:59;;;;;;;1.30;0.85;;;12.40;88.20;;;;;;4971095;28;20066;-86
2020/12/22 12:24:25;;;;;;;1.48;1.08;;;12.40;87.60;;;;;;4942385;28;20178;-86
2020/12/22 12:26:51;;;;;;;2.05;0.82;;;12.30;87.90;;;;;;4967229;28;20583;-92
2020/12/22 12:29:17;;;;;;;1.75;1.30;;;12.20;87.40;;;;;;4965517;28;20169;-92
2020/12/22 12:31:46;;;;;;;1.80;1.30;;;12.20;87.50;;;;;;4953141;28;20074;-92
2020/12/22 12:34:13;;;;;;;1.70;1.00;;;12.10;87.70;;;;;;4933625;28;20034;-93
2020/12/22 12:36:39;;;;;;;0.90;0.90;;;12.20;87.90;;;;;;4966480;28;20027;-90
2020/12/22 12:39:09;;;;;;;1.33;1.23;;;12.20;87.90;;;;;;4959987;28;20114;-92
2020/12/22 12:41:35;;;;;;;2.92;1.30;;;12.20;87.80;;;;;;4975573;28;20041;-93
2020/12/22 12:44:00;;;;;;;2.17;1.75;;;12.20;87.90;;;;;;4976819;28;20086;-93
2020/12/22 12:46:26;;;;;;;1.83;1.60;;;12.20;87.90;;;;;;4971795;28;20401;-90
2020/12/22 12:48:54;;;;;;;2.83;1.63;;;12.10;87.70;;;;;;4957442;28;20058;-93
2020/12/22 12:51:20;;;;;;;2.15;1.50;;;12.10;87.50;;;;;;4957532;28;20050;-91
2020/12/22 12:53:45;;;;;;;3.80;1.70;;;12.10;87.60;;;;;;4970210;28;20468;-89